sensor_id;sensor_type;location;lat;lon;timestamp;pressure;altitude;pressure_sealevel;temperature;humidity
57056;BME280;42945;51.718;5.324;2022-08-03T00:02:22;101313.88;;;18.28;95.56
57056;BME280;42945;51.718;5.324;2022-08-03T00:04:47;101285.56;;;18.24;95.04
57056;BME280;42945;51.718;5.324;2022-08-03T00:07:13;101198.00;;;18.12;95.30
57056;BME280;42945;51.718;5.324;2022-08-03T00:09:38;101309.13;;;18.21;95.21
57056;BME280;42945;51.718;5.324;2022-08-03T00:12:04;101286.06;;;18.18;95.20
57056;BME280;42945;51.718;5.324;2022-08-03T00:14:29;101317.13;;;17.88;96.49
57056;BME280;42945;51.718;5.324;2022-08-03T00:16:55;101328.09;;;17.97;96.98
57056;BME280;42945;51.718;5.324;2022-08-03T00:19:20;101335.13;;;18.53;98.41
57056;BME280;42945;51.718;5.324;2022-08-03T00:21:45;101278.31;;;17.81;97.70
57056;BME280;42945;51.718;5.324;2022-08-03T00:24:10;101255.78;;;17.73;99.36
57056;BME280;42945;51.718;5.324;2022-08-03T00:26:36;101234.53;;;17.81;98.36
57056;BME280;42945;51.718;5.324;2022-08-03T00:29:02;101151.53;;;17.13;97.68
57056;BME280;42945;51.718;5.324;2022-08-03T00:31:27;101054.38;;;16.54;97.90
57056;BME280;42945;51.718;5.324;2022-08-03T00:33:52;101441.34;;;18.57;96.28
57056;BME280;42945;51.718;5.324;2022-08-03T00:36:17;101186.25;;;17.15;95.25
57056;BME280;42945;51.718;5.324;2022-08-03T00:38:43;101269.53;;;17.79;96.62
57056;BME280;42945;51.718;5.324;2022-08-03T00:41:08;101261.38;;;17.81;96.82
57056;BME280;42945;51.718;5.324;2022-08-03T00:43:33;101177.13;;;16.95;98.15
57056;BME280;42945;51.718;5.324;2022-08-03T00:45:58;101096.56;;;16.28;98.65
57056;BME280;42945;51.718;5.324;2022-08-03T00:48:24;101286.03;;;17.41;100.00
57056;BME280;42945;51.718;5.324;2022-08-03T00:50:50;101263.72;;;17.29;100.00
57056;BME280;42945;51.718;5.324;2022-08-03T00:53:15;101266.19;;;17.43;100.00
57056;BME280;42945;51.718;5.324;2022-08-03T00:55:42;101240.84;;;17.36;100.00
57056;BME280;42945;51.718;5.324;2022-08-03T00:58:08;101236.19;;;17.27;100.00
57056;BME280;42945;51.718;5.324;2022-08-03T01:00:35;101278.97;;;17.40;100.00
57056;BME280;42945;51.718;5.324;2022-08-03T01:03:06;101242.06;;;17.32;100.00
57056;BME280;42945;51.718;5.324;2022-08-03T01:08:47;101170.13;;;16.81;100.00
57056;BME280;42945;51.718;5.324;2022-08-03T01:16:34;101241.81;;;17.35;100.00
57056;BME280;42945;51.718;5.324;2022-08-03T01:19:30;101057.91;;;16.21;100.00
57056;BME280;42945;51.718;5.324;2022-08-03T01:22:10;101292.50;;;17.38;100.00
57056;BME280;42945;51.718;5.324;2022-08-03T01:24:57;101234.84;;;17.21;100.00
57056;BME280;42945;51.718;5.324;2022-08-03T01:27:46;101278.25;;;17.26;100.00
57056;BME280;42945;51.718;5.324;2022-08-03T01:30:14;101388.00;;;17.86;100.00
57056;BME280;42945;51.718;5.324;2022-08-03T01:35:25;101164.63;;;16.48;100.00
57056;BME280;42945;51.718;5.324;2022-08-03T01:37:56;101251.81;;;17.22;100.00
57056;BME280;42945;51.718;5.324;2022-08-03T01:40:24;101259.84;;;17.22;100.00
57056;BME280;42945;51.718;5.324;2022-08-03T01:42:51;101237.75;;;16.84;100.00
57056;BME280;42945;51.718;5.324;2022-08-03T01:45:21;101243.28;;;17.17;100.00
57056;BME280;42945;51.718;5.324;2022-08-03T01:47:48;101242.31;;;17.06;100.00
57056;BME280;42945;51.718;5.324;2022-08-03T01:50:14;101143.09;;;16.39;100.00
57056;BME280;42945;51.718;5.324;2022-08-03T01:52:43;101262.25;;;17.13;100.00
57056;BME280;42945;51.718;5.324;2022-08-03T01:55:11;101226.22;;;17.06;100.00
57056;BME280;42945;51.718;5.324;2022-08-03T01:57:38;101233.28;;;17.07;100.00
57056;BME280;42945;51.718;5.324;2022-08-03T02:00:05;101254.25;;;17.02;100.00
57056;BME280;42945;51.718;5.324;2022-08-03T02:02:34;101273.34;;;16.98;100.00
57056;BME280;42945;51.718;5.324;2022-08-03T02:05:03;101227.78;;;16.98;100.00
57056;BME280;42945;51.718;5.324;2022-08-03T02:07:30;101102.75;;;16.18;100.00
57056;BME280;42945;51.718;5.324;2022-08-03T02:09:58;101368.44;;;17.50;100.00
57056;BME280;42945;51.718;5.324;2022-08-03T02:12:25;101238.38;;;16.99;100.00
57056;BME280;42945;51.718;5.324;2022-08-03T02:14:52;101243.00;;;16.86;100.00
57056;BME280;42945;51.718;5.324;2022-08-03T02:17:18;101123.84;;;16.33;100.00
57056;BME280;42945;51.718;5.324;2022-08-03T02:19:45;101202.59;;;16.89;100.00
57056;BME280;42945;51.718;5.324;2022-08-03T02:22:12;101212.78;;;16.84;100.00
57056;BME280;42945;51.718;5.324;2022-08-03T02:24:39;101229.72;;;16.84;100.00
57056;BME280;42945;51.718;5.324;2022-08-03T02:27:09;101363.47;;;17.57;100.00
57056;BME280;42945;51.718;5.324;2022-08-03T02:33:03;101272.25;;;16.89;100.00
57056;BME280;42945;51.718;5.324;2022-08-03T02:35:31;101262.00;;;16.94;100.00
57056;BME280;42945;51.718;5.324;2022-08-03T02:38:03;101176.47;;;16.80;100.00
57056;BME280;42945;51.718;5.324;2022-08-03T02:40:30;101242.47;;;16.69;100.00
57056;BME280;42945;51.718;5.324;2022-08-03T02:42:59;101249.34;;;16.85;100.00
57056;BME280;42945;51.718;5.324;2022-08-03T02:45:27;101209.38;;;16.82;100.00
57056;BME280;42945;51.718;5.324;2022-08-03T02:47:57;101243.63;;;16.89;100.00
57056;BME280;42945;51.718;5.324;2022-08-03T02:50:25;101236.31;;;16.91;100.00
57056;BME280;42945;51.718;5.324;2022-08-03T02:52:52;101158.50;;;16.93;100.00
57056;BME280;42945;51.718;5.324;2022-08-03T02:55:20;101267.00;;;16.99;100.00
57056;BME280;42945;51.718;5.324;2022-08-03T02:57:47;101147.72;;;16.48;100.00
57056;BME280;42945;51.718;5.324;2022-08-03T03:00:13;101236.69;;;17.21;100.00
57056;BME280;42945;51.718;5.324;2022-08-03T03:02:39;101219.50;;;17.23;100.00
57056;BME280;42945;51.718;5.324;2022-08-03T03:05:07;101215.13;;;17.34;100.00
57056;BME280;42945;51.718;5.324;2022-08-03T03:07:33;101209.88;;;17.32;100.00
57056;BME280;42945;51.718;5.324;2022-08-03T03:10:00;101242.78;;;17.45;100.00
57056;BME280;42945;51.718;5.324;2022-08-03T03:12:26;101191.50;;;17.27;100.00
57056;BME280;42945;51.718;5.324;2022-08-03T03:14:52;101204.28;;;17.35;100.00
57056;BME280;42945;51.718;5.324;2022-08-03T03:17:18;101094.06;;;16.61;100.00
57056;BME280;42945;51.718;5.324;2022-08-03T03:19:45;101220.84;;;17.29;100.00
57056;BME280;42945;51.718;5.324;2022-08-03T03:22:11;101095.78;;;16.62;100.00
57056;BME280;42945;51.718;5.324;2022-08-03T03:24:40;101208.94;;;17.22;100.00
57056;BME280;42945;51.718;5.324;2022-08-03T03:27:07;101234.50;;;17.26;100.00
57056;BME280;42945;51.718;5.324;2022-08-03T03:29:33;101189.66;;;17.05;100.00
57056;BME280;42945;51.718;5.324;2022-08-03T03:32:00;101181.75;;;17.15;100.00
57056;BME280;42945;51.718;5.324;2022-08-03T03:34:28;101224.75;;;17.02;100.00
57056;BME280;42945;51.718;5.324;2022-08-03T03:36:53;101214.78;;;17.04;100.00
57056;BME280;42945;51.718;5.324;2022-08-03T03:39:18;101209.66;;;17.01;100.00
57056;BME280;42945;51.718;5.324;2022-08-03T03:41:44;101216.72;;;16.91;100.00
57056;BME280;42945;51.718;5.324;2022-08-03T03:44:10;101247.28;;;17.00;100.00
57056;BME280;42945;51.718;5.324;2022-08-03T03:46:36;101187.72;;;16.85;100.00
57056;BME280;42945;51.718;5.324;2022-08-03T03:49:04;101232.06;;;17.00;100.00
57056;BME280;42945;51.718;5.324;2022-08-03T03:51:29;101089.88;;;16.11;100.00
57056;BME280;42945;51.718;5.324;2022-08-03T03:53:59;101176.03;;;16.86;100.00
57056;BME280;42945;51.718;5.324;2022-08-03T03:56:24;101336.13;;;17.51;100.00
57056;BME280;42945;51.718;5.324;2022-08-03T03:58:51;101211.69;;;16.86;100.00
57056;BME280;42945;51.718;5.324;2022-08-03T04:01:16;101259.31;;;16.83;100.00
57056;BME280;42945;51.718;5.324;2022-08-03T04:03:42;101223.28;;;16.87;100.00
57056;BME280;42945;51.718;5.324;2022-08-03T04:06:07;101111.53;;;16.20;100.00
57056;BME280;42945;51.718;5.324;2022-08-03T04:08:51;101110.19;;;16.25;100.00
57056;BME280;42945;51.718;5.324;2022-08-03T04:11:42;101165.66;;;16.81;100.00
57056;BME280;42945;51.718;5.324;2022-08-03T04:14:24;101209.88;;;16.87;100.00
57056;BME280;42945;51.718;5.324;2022-08-03T04:16:55;101241.91;;;16.88;100.00
57056;BME280;42945;51.718;5.324;2022-08-03T04:19:43;101055.56;;;16.05;100.00
57056;BME280;42945;51.718;5.324;2022-08-03T04:22:17;101245.38;;;16.78;100.00
57056;BME280;42945;51.718;5.324;2022-08-03T04:24:48;101168.66;;;16.77;100.00
57056;BME280;42945;51.718;5.324;2022-08-03T04:27:17;101098.41;;;16.28;100.00
57056;BME280;42945;51.718;5.324;2022-08-03T04:29:46;101200.63;;;16.91;100.00
57056;BME280;42945;51.718;5.324;2022-08-03T04:32:14;101172.38;;;16.87;100.00
57056;BME280;42945;51.718;5.324;2022-08-03T04:34:39;101261.53;;;17.00;100.00
57056;BME280;42945;51.718;5.324;2022-08-03T04:37:10;101239.25;;;17.11;100.00
57056;BME280;42945;51.718;5.324;2022-08-03T04:39:37;101244.09;;;17.06;100.00
57056;BME280;42945;51.718;5.324;2022-08-03T04:42:06;101195.53;;;17.10;100.00
57056;BME280;42945;51.718;5.324;2022-08-03T04:44:40;101218.41;;;17.03;100.00
57056;BME280;42945;51.718;5.324;2022-08-03T04:47:05;101251.81;;;17.22;100.00
57056;BME280;42945;51.718;5.324;2022-08-03T04:49:31;101109.00;;;16.63;99.92
57056;BME280;42945;51.718;5.324;2022-08-03T04:51:59;101161.91;;;17.18;99.58
57056;BME280;42945;51.718;5.324;2022-08-03T04:54:24;101223.06;;;17.24;99.54
57056;BME280;42945;51.718;5.324;2022-08-03T04:56:49;101233.78;;;17.35;98.97
57056;BME280;42945;51.718;5.324;2022-08-03T04:59:14;101315.03;;;17.81;98.72
57056;BME280;42945;51.718;5.324;2022-08-03T05:01:42;101143.97;;;16.62;98.62
57056;BME280;42945;51.718;5.324;2022-08-03T05:04:07;101127.75;;;16.74;98.11
57056;BME280;42945;51.718;5.324;2022-08-03T05:06:33;101273.97;;;17.46;98.14
57056;BME280;42945;51.718;5.324;2022-08-03T05:08:59;101150.81;;;16.88;97.81
57056;BME280;42945;51.718;5.324;2022-08-03T05:11:24;101161.44;;;17.56;99.15
57056;BME280;42945;51.718;5.324;2022-08-03T05:13:49;101336.09;;;18.19;97.27
57056;BME280;42945;51.718;5.324;2022-08-03T05:16:15;101247.75;;;17.50;96.60
57056;BME280;42945;51.718;5.324;2022-08-03T05:18:43;101227.41;;;17.59;96.14
57056;BME280;42945;51.718;5.324;2022-08-03T05:21:10;101246.41;;;17.67;96.26
57056;BME280;42945;51.718;5.324;2022-08-03T05:23:38;101186.66;;;17.76;96.07
57056;BME280;42945;51.718;5.324;2022-08-03T05:26:03;101241.88;;;17.67;95.23
57056;BME280;42945;51.718;5.324;2022-08-03T05:28:28;101272.50;;;17.87;94.52
57056;BME280;42945;51.718;5.324;2022-08-03T05:30:54;101243.72;;;17.89;93.65
57056;BME280;42945;51.718;5.324;2022-08-03T05:33:19;101156.72;;;17.92;93.84
57056;BME280;42945;51.718;5.324;2022-08-03T05:35:44;101227.97;;;17.85;93.35
57056;BME280;42945;51.718;5.324;2022-08-03T05:38:10;101257.06;;;18.01;92.57
57056;BME280;42945;51.718;5.324;2022-08-03T05:40:35;101548.88;;;19.65;92.69
57056;BME280;42945;51.718;5.324;2022-08-03T05:43:01;101280.13;;;18.36;92.37
57056;BME280;42945;51.718;5.324;2022-08-03T05:45:26;101297.03;;;18.26;91.07
57056;BME280;42945;51.718;5.324;2022-08-03T05:47:52;101229.41;;;18.33;0.00
57056;BME280;42945;51.718;5.324;2022-08-03T05:50:18;101023.75;;;17.13;90.54
57056;BME280;42945;51.718;5.324;2022-08-03T05:52:43;101184.34;;;18.57;90.36
57056;BME280;42945;51.718;5.324;2022-08-03T05:55:09;101247.81;;;18.58;90.02
57056;BME280;42945;51.718;5.324;2022-08-03T05:57:35;101144.38;;;18.01;89.59
57056;BME280;42945;51.718;5.324;2022-08-03T06:00:05;101281.25;;;18.65;90.11
57056;BME280;42945;51.718;5.324;2022-08-03T06:02:31;101163.16;;;18.22;89.07
57056;BME280;42945;51.718;5.324;2022-08-03T06:04:56;101227.44;;;18.56;89.29
57056;BME280;42945;51.718;5.324;2022-08-03T06:07:21;101244.78;;;18.73;88.63
57056;BME280;42945;51.718;5.324;2022-08-03T06:09:47;101258.78;;;18.87;88.80
57056;BME280;42945;51.718;5.324;2022-08-03T06:12:12;101233.75;;;18.87;88.13
57056;BME280;42945;51.718;5.324;2022-08-03T06:14:38;101256.44;;;18.94;88.72
57056;BME280;42945;51.718;5.324;2022-08-03T06:17:03;101021.22;;;17.65;86.42
57056;BME280;42945;51.718;5.324;2022-08-03T06:19:28;101197.81;;;19.19;87.43
57056;BME280;42945;51.718;5.324;2022-08-03T06:21:54;101151.81;;;18.60;86.71
57056;BME280;42945;51.718;5.324;2022-08-03T06:24:19;101262.13;;;19.32;85.68
57056;BME280;42945;51.718;5.324;2022-08-03T06:26:44;101161.31;;;18.64;85.85
57056;BME280;42945;51.718;5.324;2022-08-03T06:29:10;101198.75;;;19.39;85.27
57056;BME280;42945;51.718;5.324;2022-08-03T06:31:38;101141.00;;;18.93;84.22
57056;BME280;42945;51.718;5.324;2022-08-03T06:34:04;101248.19;;;19.57;84.08
57056;BME280;42945;51.718;5.324;2022-08-03T06:36:32;101285.41;;;19.83;84.78
57056;BME280;42945;51.718;5.324;2022-08-03T06:38:58;101257.38;;;19.85;83.70
57056;BME280;42945;51.718;5.324;2022-08-03T06:41:24;101251.28;;;19.83;84.59
57056;BME280;42945;51.718;5.324;2022-08-03T06:43:49;101265.72;;;19.92;83.42
57056;BME280;42945;51.718;5.324;2022-08-03T06:46:15;101269.72;;;20.17;82.90
57056;BME280;42945;51.718;5.324;2022-08-03T06:48:40;101216.72;;;20.18;82.41
57056;BME280;42945;51.718;5.324;2022-08-03T06:51:08;101276.84;;;20.28;81.62
57056;BME280;42945;51.718;5.324;2022-08-03T06:53:34;101302.91;;;20.47;81.19
57056;BME280;42945;51.718;5.324;2022-08-03T06:55:59;101290.03;;;20.70;80.51
57056;BME280;42945;51.718;5.324;2022-08-03T06:58:25;101197.84;;;20.37;80.48
57056;BME280;42945;51.718;5.324;2022-08-03T07:00:50;101268.19;;;20.54;80.10
57056;BME280;42945;51.718;5.324;2022-08-03T07:03:16;101346.72;;;21.27;79.40
57056;BME280;42945;51.718;5.324;2022-08-03T07:05:41;101229.31;;;20.56;79.39
57056;BME280;42945;51.718;5.324;2022-08-03T07:08:08;101133.53;;;20.24;78.99
57056;BME280;42945;51.718;5.324;2022-08-03T07:10:33;101185.53;;;20.15;78.29
57056;BME280;42945;51.718;5.324;2022-08-03T07:12:58;101259.09;;;20.84;77.90
57056;BME280;42945;51.718;5.324;2022-08-03T07:15:24;101195.88;;;20.20;77.38
57056;BME280;42945;51.718;5.324;2022-08-03T07:17:49;101153.66;;;20.20;77.35
57056;BME280;42945;51.718;5.324;2022-08-03T07:20:14;101291.66;;;21.10;76.71
57056;BME280;42945;51.718;5.324;2022-08-03T07:22:42;101266.13;;;21.04;76.40
57056;BME280;42945;51.718;5.324;2022-08-03T07:25:08;101319.16;;;21.23;75.89
57056;BME280;42945;51.718;5.324;2022-08-03T07:27:33;101295.03;;;21.22;75.49
57056;BME280;42945;51.718;5.324;2022-08-03T07:29:58;101296.84;;;21.31;75.22
57056;BME280;42945;51.718;5.324;2022-08-03T07:32:25;101287.47;;;21.45;76.01
57056;BME280;42945;51.718;5.324;2022-08-03T07:34:51;101554.69;;;21.14;74.07
57056;BME280;42945;51.718;5.324;2022-08-03T07:37:16;101283.38;;;21.31;75.65
57056;BME280;42945;51.718;5.324;2022-08-03T07:39:41;101129.72;;;20.84;74.07
57056;BME280;42945;51.718;5.324;2022-08-03T07:42:07;101282.13;;;21.63;73.70
57056;BME280;42945;51.718;5.324;2022-08-03T07:44:32;101176.69;;;21.09;73.57
57056;BME280;42945;51.718;5.324;2022-08-03T07:46:57;101175.41;;;21.13;73.52
57056;BME280;42945;51.718;5.324;2022-08-03T07:49:23;101279.31;;;21.82;72.86
57056;BME280;42945;51.718;5.324;2022-08-03T07:51:48;101027.13;;;20.48;71.90
57056;BME280;42945;51.718;5.324;2022-08-03T07:54:33;101143.00;;;21.87;72.45
57056;BME280;42945;51.718;5.324;2022-08-03T07:56:59;101248.94;;;22.16;71.64
57056;BME280;42945;51.718;5.324;2022-08-03T07:59:24;101234.06;;;22.12;70.88
57056;BME280;42945;51.718;5.324;2022-08-03T08:01:49;101149.31;;;21.59;71.21
57056;BME280;42945;51.718;5.324;2022-08-03T08:04:17;101272.44;;;22.52;69.76
57056;BME280;42945;51.718;5.324;2022-08-03T08:06:43;101153.34;;;21.91;69.79
57056;BME280;42945;51.718;5.324;2022-08-03T08:09:08;101276.91;;;22.87;68.79
57056;BME280;42945;51.718;5.324;2022-08-03T08:11:33;101275.78;;;22.72;68.63
57056;BME280;42945;51.718;5.324;2022-08-03T08:13:59;101298.00;;;22.84;67.05
57056;BME280;42945;51.718;5.324;2022-08-03T08:16:26;101256.47;;;23.11;68.46
57056;BME280;42945;51.718;5.324;2022-08-03T08:18:52;101156.94;;;22.36;67.81
57056;BME280;42945;51.718;5.324;2022-08-03T08:21:17;101303.53;;;23.18;67.99
57056;BME280;42945;51.718;5.324;2022-08-03T08:23:43;101153.66;;;22.50;67.58
57056;BME280;42945;51.718;5.324;2022-08-03T08:26:08;101153.88;;;22.57;67.76
57056;BME280;42945;51.718;5.324;2022-08-03T08:28:52;101270.81;;;23.03;66.72
57056;BME280;42945;51.718;5.324;2022-08-03T08:31:18;101287.81;;;23.22;67.43
57056;BME280;42945;51.718;5.324;2022-08-03T08:33:43;101281.41;;;23.23;78.43
57056;BME280;42945;51.718;5.324;2022-08-03T08:36:08;101291.47;;;23.38;65.75
57056;BME280;42945;51.718;5.324;2022-08-03T08:38:34;101308.28;;;23.24;66.78
57056;BME280;42945;51.718;5.324;2022-08-03T08:41:00;101265.97;;;23.49;65.66
57056;BME280;42945;51.718;5.324;2022-08-03T08:43:27;101166.03;;;23.13;65.32
57056;BME280;42945;51.718;5.324;2022-08-03T08:45:53;101176.06;;;22.42;64.70
57056;BME280;42945;51.718;5.324;2022-08-03T08:48:21;101156.59;;;22.91;64.59
57056;BME280;42945;51.718;5.324;2022-08-03T08:50:51;101032.56;;;22.54;65.25
57056;BME280;42945;51.718;5.324;2022-08-03T08:53:18;101281.56;;;23.98;64.84
57056;BME280;42945;51.718;5.324;2022-08-03T08:55:45;101228.19;;;23.82;64.64
57056;BME280;42945;51.718;5.324;2022-08-03T08:58:15;101293.81;;;24.18;64.12
57056;BME280;42945;51.718;5.324;2022-08-03T09:00:43;101287.78;;;23.90;63.79
57056;BME280;42945;51.718;5.324;2022-08-03T09:03:09;101256.31;;;23.89;63.67
57056;BME280;42945;51.718;5.324;2022-08-03T09:05:34;101293.78;;;24.02;62.87
57056;BME280;42945;51.718;5.324;2022-08-03T09:08:10;101282.50;;;24.56;63.49
57056;BME280;42945;51.718;5.324;2022-08-03T09:10:35;101323.97;;;24.24;62.94
57056;BME280;42945;51.718;5.324;2022-08-03T09:13:00;101387.09;;;25.16;61.59
57056;BME280;42945;51.718;5.324;2022-08-03T09:15:28;101263.00;;;24.28;61.92
57056;BME280;42945;51.718;5.324;2022-08-03T09:18:00;101273.50;;;24.47;60.55
57056;BME280;42945;51.718;5.324;2022-08-03T09:20:27;101257.25;;;24.80;61.44
57056;BME280;42945;51.718;5.324;2022-08-03T09:25:18;101263.19;;;24.84;61.88
57056;BME280;42945;51.718;5.324;2022-08-03T09:27:45;101272.13;;;24.92;60.46
57056;BME280;42945;51.718;5.324;2022-08-03T09:30:15;101263.50;;;24.97;60.28
57056;BME280;42945;51.718;5.324;2022-08-03T09:32:41;101134.75;;;24.19;59.10
57056;BME280;42945;51.718;5.324;2022-08-03T09:35:09;101291.09;;;25.01;59.62
57056;BME280;42945;51.718;5.324;2022-08-03T09:37:35;101174.72;;;24.42;59.01
57056;BME280;42945;51.718;5.324;2022-08-03T09:40:01;101235.78;;;25.18;59.24
57056;BME280;42945;51.718;5.324;2022-08-03T09:42:26;101286.75;;;25.56;58.48
57056;BME280;42945;51.718;5.324;2022-08-03T09:44:51;101286.50;;;25.18;57.69
57056;BME280;42945;51.718;5.324;2022-08-03T09:47:31;101164.88;;;24.41;58.07
57056;BME280;42945;51.718;5.324;2022-08-03T09:50:05;101290.84;;;25.51;58.65
57056;BME280;42945;51.718;5.324;2022-08-03T09:52:35;101308.94;;;25.67;58.40
57056;BME280;42945;51.718;5.324;2022-08-03T09:55:07;101285.84;;;25.71;57.44
57056;BME280;42945;51.718;5.324;2022-08-03T09:57:32;101171.91;;;24.91;56.26
57056;BME280;42945;51.718;5.324;2022-08-03T10:00:09;101283.03;;;25.96;55.46
57056;BME280;42945;51.718;5.324;2022-08-03T10:02:36;101139.56;;;25.29;55.82
57056;BME280;42945;51.718;5.324;2022-08-03T10:05:03;101286.59;;;25.88;54.71
57056;BME280;42945;51.718;5.324;2022-08-03T10:07:28;101246.47;;;25.67;55.23
57056;BME280;42945;51.718;5.324;2022-08-03T10:09:59;101302.25;;;26.18;55.40
57056;BME280;42945;51.718;5.324;2022-08-03T10:12:26;101220.06;;;26.07;54.40
57056;BME280;42945;51.718;5.324;2022-08-03T10:14:52;101285.38;;;25.99;51.75
57056;BME280;42945;51.718;5.324;2022-08-03T10:17:18;101251.75;;;26.84;52.86
57056;BME280;42945;51.718;5.324;2022-08-03T10:19:44;101180.72;;;25.72;53.31
57056;BME280;42945;51.718;5.324;2022-08-03T10:22:20;101259.00;;;26.31;52.36
57056;BME280;42945;51.718;5.324;2022-08-03T10:27:16;101266.66;;;26.74;51.46
57056;BME280;42945;51.718;5.324;2022-08-03T10:29:46;101253.06;;;26.88;50.98
57056;BME280;42945;51.718;5.324;2022-08-03T10:32:18;101402.84;;;27.41;49.83
57056;BME280;42945;51.718;5.324;2022-08-03T10:34:46;101218.44;;;27.12;49.81
57056;BME280;42945;51.718;5.324;2022-08-03T10:37:15;101250.34;;;27.03;48.43
57056;BME280;42945;51.718;5.324;2022-08-03T10:39:43;101100.53;;;26.22;49.95
57056;BME280;42945;51.718;5.324;2022-08-03T10:42:19;101139.63;;;26.21;49.42
57056;BME280;42945;51.718;5.324;2022-08-03T10:44:45;101230.34;;;26.96;48.71
57056;BME280;42945;51.718;5.324;2022-08-03T10:50:26;101272.88;;;27.12;48.32
57056;BME280;42945;51.718;5.324;2022-08-03T10:52:54;101217.31;;;27.21;48.00
57056;BME280;42945;51.718;5.324;2022-08-03T10:55:49;101153.09;;;26.52;49.19
57056;BME280;42945;51.718;5.324;2022-08-03T11:01:09;101138.50;;;26.83;47.23
57056;BME280;42945;51.718;5.324;2022-08-03T11:06:20;101242.53;;;27.75;46.17
57056;BME280;42945;51.718;5.324;2022-08-03T11:08:47;101195.25;;;27.82;46.80
57056;BME280;42945;51.718;5.324;2022-08-03T11:16:26;101203.91;;;28.07;46.03
57056;BME280;42945;51.718;5.324;2022-08-03T11:19:00;101097.38;;;27.66;0.00
57056;BME280;42945;51.718;5.324;2022-08-03T11:27:30;101222.00;;;28.37;43.46
57056;BME280;42945;51.718;5.324;2022-08-03T11:35:14;101247.59;;;28.14;44.86
57056;BME280;42945;51.718;5.324;2022-08-03T11:40:41;101244.72;;;28.65;44.76
57056;BME280;42945;51.718;5.324;2022-08-03T11:45:35;101075.53;;;28.37;45.06
57056;BME280;42945;51.718;5.324;2022-08-03T11:48:12;101235.47;;;28.95;44.04
57056;BME280;42945;51.718;5.324;2022-08-03T11:50:39;101331.25;;;29.56;43.52
57056;BME280;42945;51.718;5.324;2022-08-03T11:53:06;101198.72;;;28.62;43.95
57056;BME280;42945;51.718;5.324;2022-08-03T11:55:31;101031.78;;;27.67;44.66
57056;BME280;42945;51.718;5.324;2022-08-03T11:57:58;101232.84;;;28.80;44.91
57056;BME280;42945;51.718;5.324;2022-08-03T12:03:11;101166.41;;;28.66;45.44
57056;BME280;42945;51.718;5.324;2022-08-03T12:05:50;101126.81;;;28.48;45.21
57056;BME280;42945;51.718;5.324;2022-08-03T12:10:53;101225.06;;;29.12;45.12
57056;BME280;42945;51.718;5.324;2022-08-03T12:13:19;101195.09;;;29.18;47.19
57056;BME280;42945;51.718;5.324;2022-08-03T12:15:53;101228.78;;;29.04;44.41
57056;BME280;42945;51.718;5.324;2022-08-03T12:18:19;101210.69;;;29.31;43.61
57056;BME280;42945;51.718;5.324;2022-08-03T12:20:47;101026.16;;;27.69;44.30
57056;BME280;42945;51.718;5.324;2022-08-03T12:23:13;101172.28;;;29.46;44.40
57056;BME280;42945;51.718;5.324;2022-08-03T12:25:40;101180.72;;;29.51;43.30
57056;BME280;42945;51.718;5.324;2022-08-03T12:28:07;101209.75;;;29.65;44.20
57056;BME280;42945;51.718;5.324;2022-08-03T12:30:33;101203.50;;;29.23;45.61
57056;BME280;42945;51.718;5.324;2022-08-03T12:32:58;101166.22;;;29.09;45.17
57056;BME280;42945;51.718;5.324;2022-08-03T12:35:24;101235.00;;;29.61;44.93
57056;BME280;42945;51.718;5.324;2022-08-03T12:37:50;101203.63;;;29.50;44.84
57056;BME280;42945;51.718;5.324;2022-08-03T12:40:25;101242.28;;;29.95;43.82
57056;BME280;42945;51.718;5.324;2022-08-03T12:42:52;101224.47;;;29.58;46.07
57056;BME280;42945;51.718;5.324;2022-08-03T12:45:25;101202.97;;;29.48;45.56
57056;BME280;42945;51.718;5.324;2022-08-03T12:50:28;101220.91;;;29.64;45.53
57056;BME280;42945;51.718;5.324;2022-08-03T12:52:55;101183.91;;;29.61;45.98
57056;BME280;42945;51.718;5.324;2022-08-03T12:55:21;101223.88;;;29.62;45.28
57056;BME280;42945;51.718;5.324;2022-08-03T12:57:47;101202.69;;;29.91;46.51
57056;BME280;42945;51.718;5.324;2022-08-03T13:00:15;101192.00;;;30.76;44.23
57056;BME280;42945;51.718;5.324;2022-08-03T13:02:41;101254.50;;;30.06;44.52
57056;BME280;42945;51.718;5.324;2022-08-03T13:05:13;87853.09;;;-54.20;43.52
57056;BME280;42945;51.718;5.324;2022-08-03T13:07:44;101226.59;;;29.62;45.62
57056;BME280;42945;51.718;5.324;2022-08-03T13:10:11;101213.56;;;29.64;45.69
57056;BME280;42945;51.718;5.324;2022-08-03T13:12:50;101216.13;;;29.73;45.26
57056;BME280;42945;51.718;5.324;2022-08-03T13:15:17;101230.53;;;29.53;45.58
57056;BME280;42945;51.718;5.324;2022-08-03T13:17:42;101158.97;;;28.88;46.11
57056;BME280;42945;51.718;5.324;2022-08-03T13:20:08;101182.69;;;29.77;45.25
57056;BME280;42945;51.718;5.324;2022-08-03T13:22:33;101192.00;;;29.90;45.19
57056;BME280;42945;51.718;5.324;2022-08-03T13:24:59;101205.47;;;30.18;45.78
57056;BME280;42945;51.718;5.324;2022-08-03T13:27:29;101102.75;;;29.55;45.09
57056;BME280;42945;51.718;5.324;2022-08-03T13:29:55;101169.72;;;30.13;45.75
57056;BME280;42945;51.718;5.324;2022-08-03T13:32:21;101191.63;;;30.46;44.94
57056;BME280;42945;51.718;5.324;2022-08-03T13:34:47;101185.47;;;30.24;45.49
57056;BME280;42945;51.718;5.324;2022-08-03T13:37:13;101222.78;;;30.32;44.42
57056;BME280;42945;51.718;5.324;2022-08-03T13:39:39;101197.69;;;30.08;46.21
57056;BME280;42945;51.718;5.324;2022-08-03T13:42:04;101220.22;;;30.17;43.80
57056;BME280;42945;51.718;5.324;2022-08-03T13:44:31;101144.13;;;29.04;45.54
57056;BME280;42945;51.718;5.324;2022-08-03T13:46:56;101213.72;;;30.58;43.79
57056;BME280;42945;51.718;5.324;2022-08-03T13:49:22;101201.09;;;30.37;45.52